createdAt,value
2018-03-22T00:00:29.928Z,90.24
2018-03-22T00:02:56.433Z,91.00
2018-03-22T00:05:22.764Z,91.61
2018-03-22T00:07:49.535Z,89.85
2018-03-22T00:10:15.825Z,91.04
2018-03-22T00:12:42.242Z,91.22
2018-03-22T00:15:08.627Z,91.94
2018-03-22T00:17:35.045Z,91.15
2018-03-22T00:20:01.641Z,92.28
2018-03-22T00:22:38.491Z,92.83
2018-03-22T00:25:04.917Z,92.61
2018-03-22T00:27:31.328Z,92.45
2018-03-22T00:29:57.826Z,93.11
2018-03-22T00:32:24.238Z,93.47
2018-03-22T00:34:50.683Z,92.71
2018-03-22T00:37:17.106Z,92.78
2018-03-22T00:39:43.526Z,93.72
2018-03-22T00:42:10.015Z,94.33
2018-03-22T00:44:36.442Z,93.29
2018-03-22T00:47:02.814Z,93.94
2018-03-22T00:49:29.207Z,93.84
2018-03-22T00:51:55.647Z,93.26
2018-03-22T00:54:22.067Z,93.39
2018-03-22T00:56:48.447Z,94.15
2018-03-22T00:59:14.934Z,93.79
2018-03-22T01:01:41.310Z,93.59
2018-03-22T01:04:07.633Z,92.93
2018-03-22T01:06:34.074Z,94.05
2018-03-22T01:09:00.421Z,93.92
2018-03-22T01:11:26.815Z,93.28
2018-03-22T01:13:53.228Z,93.44
2018-03-22T01:16:19.562Z,94.05
2018-03-22T01:18:45.865Z,93.84
2018-03-22T01:21:12.365Z,94.46
2018-03-22T01:23:38.675Z,93.15
2018-03-22T01:26:05.078Z,93.38
2018-03-22T01:28:31.461Z,94.08
2018-03-22T01:30:57.852Z,93.62
2018-03-22T01:33:24.162Z,93.84
2018-03-22T01:35:50.558Z,94.02
2018-03-22T01:38:16.898Z,93.49
2018-03-22T01:40:43.242Z,94.55
2018-03-22T01:43:09.736Z,94.60
2018-03-22T01:45:36.073Z,94.50
2018-03-22T01:48:02.488Z,93.84
2018-03-22T01:50:28.913Z,94.40
2018-03-22T01:53:07.580Z,93.63
2018-03-22T01:55:33.956Z,93.54
2018-03-22T01:58:00.292Z,94.26
2018-03-22T02:00:26.653Z,94.11
2018-03-22T02:02:53.156Z,94.04
2018-03-22T02:05:19.490Z,94.08
2018-03-22T02:07:45.788Z,93.47
2018-03-22T02:10:12.177Z,94.77
2018-03-22T02:12:38.538Z,94.72
2018-03-22T02:15:04.932Z,94.76
2018-03-22T02:17:31.343Z,94.29
2018-03-22T02:19:57.675Z,94.63
2018-03-22T02:22:24.084Z,93.70
2018-03-22T02:24:50.480Z,94.54
2018-03-22T02:27:16.857Z,94.95
2018-03-22T02:29:43.152Z,94.65
2018-03-22T02:32:09.595Z,95.01
2018-03-22T02:34:35.946Z,94.49
2018-03-22T02:37:02.269Z,94.28
2018-03-22T02:39:28.628Z,94.98
2018-03-22T02:41:55.019Z,94.09
2018-03-22T02:44:21.362Z,94.23
2018-03-22T02:46:47.648Z,94.41
2018-03-22T02:49:13.978Z,94.17
2018-03-22T02:51:40.317Z,94.18
2018-03-22T02:54:06.710Z,94.45
2018-03-22T02:56:33.092Z,93.93
2018-03-22T02:58:59.549Z,94.62
2018-03-22T03:01:26.135Z,93.54
2018-03-22T03:03:52.559Z,93.74
2018-03-22T03:06:18.898Z,93.93
2018-03-22T03:08:45.268Z,95.00
2018-03-22T03:11:11.746Z,94.30
2018-03-22T03:13:38.082Z,93.83
2018-03-22T03:16:04.472Z,94.50
2018-03-22T03:18:30.811Z,94.41
2018-03-22T03:20:57.114Z,94.41
2018-03-22T03:23:23.480Z,94.12
2018-03-22T03:25:49.803Z,94.49
2018-03-22T03:28:16.127Z,94.65
2018-03-22T03:30:42.479Z,94.57
2018-03-22T03:33:08.841Z,94.47
2018-03-22T03:35:35.138Z,94.84
2018-03-22T03:38:01.535Z,94.99
2018-03-22T03:40:27.828Z,95.04
2018-03-22T03:42:54.200Z,94.62
2018-03-22T03:45:20.582Z,94.28
2018-03-22T03:47:47.407Z,93.91
2018-03-22T03:50:13.800Z,94.11
2018-03-22T03:52:40.210Z,93.84
2018-03-22T03:55:06.514Z,93.34
2018-03-22T03:57:32.839Z,93.55
2018-03-22T03:59:59.183Z,94.02
2018-03-22T04:02:25.643Z,93.52
2018-03-22T04:04:52.025Z,93.22
2018-03-22T04:07:18.365Z,93.60
2018-03-22T04:09:44.740Z,93.26
2018-03-22T04:12:11.088Z,93.36
2018-03-22T04:14:37.476Z,93.75
2018-03-22T04:17:03.956Z,93.39
2018-03-22T04:19:30.292Z,93.36
2018-03-22T04:21:56.678Z,94.50
2018-03-22T04:24:23.000Z,93.00
2018-03-22T04:26:50.415Z,92.88
2018-03-22T04:29:16.758Z,93.06
2018-03-22T04:31:43.184Z,93.95
2018-03-22T04:34:09.530Z,93.10
2018-03-22T04:36:35.878Z,92.63
2018-03-22T04:39:02.315Z,92.49
2018-03-22T04:41:28.723Z,92.51
2018-03-22T04:43:55.098Z,93.03
2018-03-22T04:46:21.499Z,93.49
2018-03-22T04:48:47.848Z,93.80
2018-03-22T04:51:14.345Z,93.18
2018-03-22T04:53:40.709Z,93.71
2018-03-22T04:56:07.113Z,92.88
2018-03-22T04:58:33.482Z,93.21
2018-03-22T05:00:59.803Z,93.05
2018-03-22T05:03:26.204Z,92.31
2018-03-22T05:05:52.709Z,92.50
2018-03-22T05:08:19.011Z,93.73
2018-03-22T05:10:45.344Z,93.28
2018-03-22T05:13:11.841Z,93.87
2018-03-22T05:15:38.196Z,93.56
2018-03-22T05:18:04.645Z,93.14
2018-03-22T05:20:31.051Z,93.01
2018-03-22T05:22:57.491Z,92.28
2018-03-22T05:25:23.847Z,93.04
2018-03-22T05:27:50.447Z,92.69
2018-03-22T05:30:16.829Z,93.28
2018-03-22T05:32:43.206Z,93.02
2018-03-22T05:35:09.668Z,92.62
2018-03-22T05:37:36.069Z,93.00
2018-03-22T05:40:02.650Z,93.50
2018-03-22T05:42:29.106Z,93.94
2018-03-22T05:44:55.453Z,93.48
2018-03-22T05:47:21.851Z,93.67
2018-03-22T05:49:48.333Z,93.46
2018-03-22T05:52:14.935Z,93.29
2018-03-22T05:54:41.522Z,93.24
2018-03-22T05:57:07.972Z,92.87
2018-03-22T05:59:34.327Z,93.28
2018-03-22T06:02:01.020Z,93.37
2018-03-22T06:04:27.539Z,93.33
2018-03-22T06:06:54.763Z,93.48
2018-03-22T06:09:21.169Z,94.12
2018-03-22T06:11:47.649Z,94.54
2018-03-22T06:14:14.217Z,94.07
2018-03-22T06:16:40.684Z,93.99
2018-03-22T06:19:07.159Z,93.54
2018-03-22T06:21:33.706Z,93.61
2018-03-22T06:24:00.164Z,94.26
2018-03-22T06:26:26.677Z,94.25
2018-03-22T06:28:53.190Z,94.65
2018-03-22T06:31:19.757Z,95.11
2018-03-22T06:33:46.216Z,95.47
2018-03-22T06:36:12.609Z,94.98
2018-03-22T06:38:39.012Z,94.75
2018-03-22T06:41:05.452Z,95.10
2018-03-22T06:43:31.848Z,94.67
2018-03-22T06:45:58.424Z,95.09
2018-03-22T06:48:24.860Z,93.74
2018-03-22T06:50:51.322Z,93.71
2018-03-22T06:53:17.851Z,93.49
2018-03-22T06:55:44.300Z,93.51
2018-03-22T06:58:10.778Z,92.70
2018-03-22T07:00:37.580Z,92.67
2018-03-22T07:03:04.062Z,92.37
2018-03-22T07:05:30.423Z,92.57
2018-03-22T07:07:57.746Z,92.22
2018-03-22T07:10:24.145Z,92.13
2018-03-22T07:12:50.550Z,91.90
2018-03-22T07:15:16.966Z,91.78
2018-03-22T07:17:43.337Z,90.07
2018-03-22T07:20:09.656Z,90.25
2018-03-22T07:22:36.101Z,89.72
2018-03-22T07:25:02.954Z,89.87
2018-03-22T07:27:29.360Z,89.00
2018-03-22T07:29:55.771Z,89.95
2018-03-22T07:32:22.231Z,89.64
2018-03-22T07:34:48.552Z,89.98
2018-03-22T07:37:14.978Z,88.89
2018-03-22T07:39:41.374Z,89.35
2018-03-22T07:42:07.869Z,88.53
2018-03-22T07:44:40.238Z,89.36
2018-03-22T07:47:06.606Z,88.01
2018-03-22T07:49:32.951Z,87.81
2018-03-22T07:51:59.473Z,87.20
2018-03-22T07:54:25.898Z,86.48
2018-03-22T07:56:52.317Z,86.57
2018-03-22T07:59:18.786Z,85.94
2018-03-22T08:01:45.168Z,85.59
2018-03-22T08:04:11.578Z,84.37
2018-03-22T08:06:38.057Z,84.33
2018-03-22T08:09:04.528Z,84.80
2018-03-22T08:11:31.086Z,84.80
2018-03-22T08:13:57.502Z,84.81
2018-03-22T08:16:24.239Z,84.62
2018-03-22T08:18:50.944Z,84.44
2018-03-22T08:21:17.418Z,85.10
2018-03-22T08:23:43.886Z,84.95
2018-03-22T08:26:10.273Z,85.74
2018-03-22T08:28:36.752Z,83.55
2018-03-22T08:31:03.154Z,82.68
2018-03-22T08:33:29.585Z,82.22
2018-03-22T08:35:56.257Z,82.37
2018-03-22T08:38:22.705Z,81.32
2018-03-22T08:40:49.112Z,81.09
2018-03-22T08:43:15.601Z,80.20
2018-03-22T08:45:42.142Z,80.98
2018-03-22T08:48:08.573Z,82.85
2018-03-22T08:50:34.987Z,82.17
2018-03-22T08:53:01.424Z,81.93
2018-03-22T08:55:27.756Z,82.09
2018-03-22T08:57:54.332Z,83.24
2018-03-22T09:00:20.790Z,84.18
2018-03-22T09:02:47.256Z,83.72
2018-03-22T09:05:13.703Z,83.86
2018-03-22T09:07:40.174Z,83.29
2018-03-22T09:10:06.804Z,84.09
2018-03-22T09:12:33.376Z,84.49
2018-03-22T09:14:59.824Z,84.04
2018-03-22T09:17:26.333Z,84.26
2018-03-22T09:19:52.810Z,84.32
2018-03-22T09:22:19.277Z,84.06
2018-03-22T09:24:45.683Z,85.16
2018-03-22T09:27:12.497Z,84.38
2018-03-22T09:29:39.217Z,84.68
2018-03-22T09:32:05.696Z,85.67
2018-03-22T09:34:32.193Z,84.66
2018-03-22T09:36:58.595Z,85.10
2018-03-22T09:39:25.027Z,85.05
2018-03-22T09:41:51.531Z,84.26
2018-03-22T09:44:18.228Z,84.46
2018-03-22T09:46:44.660Z,84.35
2018-03-22T09:49:11.095Z,85.17
2018-03-22T09:51:37.514Z,83.89
2018-03-22T09:54:04.011Z,82.98
2018-03-22T09:56:30.480Z,83.85
2018-03-22T09:58:56.906Z,82.86
2018-03-22T10:01:23.286Z,82.16
2018-03-22T10:03:50.464Z,82.37
2018-03-22T10:06:17.009Z,83.79
2018-03-22T10:08:43.363Z,85.39
2018-03-22T10:11:09.794Z,85.93
2018-03-22T10:13:36.242Z,85.65
2018-03-22T10:16:02.656Z,84.77
2018-03-22T10:18:29.043Z,85.02
2018-03-22T10:20:55.463Z,83.11
2018-03-22T10:23:21.907Z,82.41
2018-03-22T10:25:48.298Z,82.37
2018-03-22T10:28:14.633Z,83.42
2018-03-22T10:30:40.966Z,83.38
2018-03-22T10:33:07.522Z,82.17
2018-03-22T10:35:33.926Z,81.16
2018-03-22T10:38:00.271Z,82.09
2018-03-22T10:40:26.833Z,80.06
2018-03-22T10:42:53.302Z,80.95
2018-03-22T10:45:19.666Z,78.32
2018-03-22T10:47:46.191Z,77.47
2018-03-22T10:50:12.697Z,74.64
2018-03-22T10:52:39.179Z,74.68
2018-03-22T10:55:05.668Z,75.91
2018-03-22T10:57:32.038Z,74.33
2018-03-22T10:59:58.547Z,73.20
2018-03-22T11:02:31.926Z,70.40
2018-03-22T11:04:58.529Z,73.65
2018-03-22T11:07:25.039Z,73.10
2018-03-22T11:09:51.649Z,73.12
2018-03-22T11:12:18.043Z,73.86
2018-03-22T11:14:44.910Z,70.96
2018-03-22T11:17:12.212Z,71.70
2018-03-22T11:19:38.627Z,73.08
2018-03-22T11:22:05.156Z,71.79
2018-03-22T11:24:31.806Z,75.08
2018-03-22T11:26:58.173Z,74.32
2018-03-22T11:29:24.514Z,72.72
2018-03-22T11:31:50.956Z,71.15
2018-03-22T11:34:17.412Z,69.78
2018-03-22T11:36:43.759Z,71.29
2018-03-22T11:39:10.161Z,69.49
2018-03-22T11:41:36.638Z,70.84
2018-03-22T11:44:03.080Z,68.24
2018-03-22T11:46:29.576Z,67.27
2018-03-22T11:48:56.031Z,65.72
2018-03-22T11:51:22.491Z,67.85
2018-03-22T11:53:49.082Z,68.59
2018-03-22T11:56:15.472Z,65.52
2018-03-22T11:58:41.846Z,65.18
2018-03-22T12:01:08.800Z,61.70
2018-03-22T12:03:35.193Z,59.95
2018-03-22T12:06:01.585Z,65.20
2018-03-22T12:08:28.007Z,62.40
2018-03-22T12:10:54.410Z,63.73
2018-03-22T12:13:20.982Z,65.99
2018-03-22T12:15:47.380Z,66.83
2018-03-22T12:18:13.807Z,65.39
2018-03-22T12:20:40.159Z,64.80
2018-03-22T12:23:06.617Z,63.40
2018-03-22T12:25:32.986Z,64.69
2018-03-22T12:27:59.345Z,61.98
2018-03-22T12:30:25.803Z,62.20
2018-03-22T12:32:52.201Z,57.78
2018-03-22T12:35:18.551Z,58.70
2018-03-22T12:37:44.982Z,54.75
2018-03-22T12:40:11.577Z,54.60
2018-03-22T12:42:38.066Z,56.61
2018-03-22T12:45:04.489Z,60.22
2018-03-22T12:47:30.918Z,60.63
2018-03-22T12:49:57.589Z,58.85
2018-03-22T12:52:24.088Z,58.92
2018-03-22T12:54:50.733Z,56.97
2018-03-22T12:57:17.224Z,57.56
2018-03-22T12:59:43.986Z,58.66
2018-03-22T13:02:10.585Z,61.61
2018-03-22T13:04:37.494Z,63.73
2018-03-22T13:07:04.016Z,61.04
2018-03-22T13:09:30.906Z,63.97
2018-03-22T13:11:57.288Z,65.43
2018-03-22T13:14:23.969Z,62.14
2018-03-22T13:16:50.360Z,61.64
2018-03-22T13:19:16.948Z,60.38
2018-03-22T13:21:43.475Z,61.32
2018-03-22T13:24:09.973Z,62.93
2018-03-22T13:26:36.549Z,65.12
2018-03-22T13:29:03.068Z,67.60
2018-03-22T13:31:29.847Z,68.00
2018-03-22T13:33:56.315Z,63.10
2018-03-22T13:36:22.772Z,63.91
2018-03-22T13:38:49.489Z,66.14
2018-03-22T13:41:16.173Z,66.76
2018-03-22T13:43:42.943Z,65.90
2018-03-22T13:46:09.303Z,61.76
2018-03-22T13:48:35.767Z,64.09
2018-03-22T13:51:02.245Z,63.54
2018-03-22T13:53:29.103Z,64.42
2018-03-22T13:55:55.502Z,67.42
2018-03-22T13:58:21.900Z,66.88
2018-03-22T14:00:48.285Z,69.45
2018-03-22T14:03:14.834Z,69.83
2018-03-22T14:05:42.223Z,68.95
2018-03-22T14:08:08.700Z,71.03
2018-03-22T14:10:35.479Z,71.51
2018-03-22T14:13:01.977Z,71.00
2018-03-22T14:15:28.295Z,71.77
2018-03-22T14:17:54.698Z,68.38
2018-03-22T14:20:21.110Z,69.92
2018-03-22T14:22:47.761Z,69.73
2018-03-22T14:25:14.219Z,70.44
2018-03-22T14:27:40.846Z,70.55
2018-03-22T14:30:07.253Z,71.17
2018-03-22T14:32:33.690Z,69.86
2018-03-22T14:35:00.039Z,73.45
2018-03-22T14:37:26.373Z,70.58
2018-03-22T14:39:52.706Z,71.91
2018-03-22T14:42:19.252Z,73.36
2018-03-22T14:44:45.711Z,73.67
2018-03-22T14:47:12.144Z,75.08
2018-03-22T14:49:38.774Z,74.67
2018-03-22T14:52:05.120Z,75.46
2018-03-22T14:54:31.609Z,75.54
2018-03-22T14:56:58.059Z,76.12
2018-03-22T14:59:24.473Z,76.44
2018-03-22T15:01:50.941Z,75.42
2018-03-22T15:04:17.352Z,76.49
2018-03-22T15:06:43.703Z,76.84
2018-03-22T15:09:10.175Z,77.14
2018-03-22T15:11:36.542Z,78.58
2018-03-22T15:14:03.893Z,78.46
2018-03-22T15:16:30.343Z,77.77
2018-03-22T15:18:57.068Z,77.82
2018-03-22T15:21:23.455Z,77.80
2018-03-22T15:23:49.941Z,77.78
2018-03-22T15:26:16.363Z,79.19
2018-03-22T15:28:42.789Z,77.93
2018-03-22T15:31:09.175Z,77.27
2018-03-22T15:33:35.716Z,78.26
2018-03-22T15:36:02.303Z,78.39
2018-03-22T15:38:28.674Z,78.43
2018-03-22T15:40:55.730Z,77.64
2018-03-22T15:43:22.128Z,77.67
2018-03-22T15:45:48.613Z,77.98
2018-03-22T15:48:15.079Z,77.76
2018-03-22T15:50:41.449Z,77.15
2018-03-22T15:53:07.956Z,77.48
2018-03-22T15:55:34.458Z,77.12
2018-03-22T15:58:00.960Z,76.83
2018-03-22T16:00:27.370Z,77.62
2018-03-22T16:02:53.916Z,77.50
2018-03-22T16:05:20.377Z,77.99
2018-03-22T16:07:46.787Z,77.82
2018-03-22T16:10:13.280Z,77.80
2018-03-22T16:12:40.053Z,77.54
2018-03-22T16:15:06.434Z,79.21
2018-03-22T16:17:32.868Z,78.52
2018-03-22T16:19:59.284Z,78.94
2018-03-22T16:22:25.911Z,79.00
2018-03-22T16:24:52.526Z,78.51
2018-03-22T16:27:18.974Z,79.18
2018-03-22T16:29:45.494Z,78.86
2018-03-22T16:32:11.964Z,78.50
2018-03-22T16:34:38.464Z,78.98
2018-03-22T16:37:05.496Z,79.07
2018-03-22T16:39:32.068Z,78.68
2018-03-22T16:41:58.942Z,78.52
2018-03-22T16:44:26.431Z,79.30
2018-03-22T16:46:53.246Z,79.62
2018-03-22T16:49:19.900Z,79.66
2018-03-22T16:51:46.386Z,80.68
2018-03-22T16:54:12.902Z,80.79
2018-03-22T16:56:39.331Z,81.13
2018-03-22T16:59:05.927Z,80.97
2018-03-22T17:01:32.609Z,80.55
2018-03-22T17:03:59.719Z,80.63
2018-03-22T17:06:26.366Z,81.08
2018-03-22T17:08:53.017Z,81.59
2018-03-22T17:11:19.476Z,81.40
2018-03-22T17:13:46.012Z,81.53
2018-03-22T17:16:12.674Z,81.39
2018-03-22T17:18:39.139Z,81.96
2018-03-22T17:21:05.856Z,81.50
2018-03-22T17:23:32.499Z,82.13
2018-03-22T17:25:59.013Z,81.62
2018-03-22T17:28:25.735Z,82.03
2018-03-22T17:30:52.222Z,82.15
2018-03-22T17:33:18.726Z,81.93
2018-03-22T17:35:45.482Z,82.46
2018-03-22T17:38:11.997Z,82.20
2018-03-22T17:40:38.457Z,81.72
2018-03-22T17:43:05.154Z,80.89
2018-03-22T17:45:31.781Z,81.48
2018-03-22T17:47:58.392Z,81.99
2018-03-22T17:50:24.966Z,81.76
2018-03-22T17:52:52.256Z,82.07
2018-03-22T17:55:19.196Z,81.88
2018-03-22T17:57:45.967Z,82.06
2018-03-22T18:00:12.850Z,81.68
2018-03-22T18:02:39.616Z,81.84
2018-03-22T18:05:06.532Z,81.87
2018-03-22T18:07:33.306Z,82.00
2018-03-22T18:10:00.112Z,81.68
2018-03-22T18:12:26.976Z,81.76
2018-03-22T18:14:55.054Z,81.46
2018-03-22T18:17:21.816Z,81.64
2018-03-22T18:19:48.588Z,81.68
2018-03-22T18:22:15.240Z,82.86
2018-03-22T18:24:41.885Z,81.44
2018-03-22T18:27:08.584Z,80.84
2018-03-22T18:29:35.388Z,81.31
2018-03-22T18:32:02.072Z,81.91
2018-03-22T18:34:28.881Z,81.29
2018-03-22T18:36:55.691Z,81.52
2018-03-22T18:39:22.424Z,80.80
2018-03-22T18:41:49.155Z,82.36
2018-03-22T18:44:16.067Z,82.22
2018-03-22T18:46:42.913Z,81.13
2018-03-22T18:49:09.619Z,80.78
2018-03-22T18:51:36.356Z,81.27
2018-03-22T18:54:03.298Z,81.50
2018-03-22T18:56:30.202Z,80.91
2018-03-22T18:58:56.886Z,80.92
2018-03-22T19:01:23.575Z,81.28
2018-03-22T19:03:50.465Z,81.80
2018-03-22T19:06:17.347Z,81.80
2018-03-22T19:08:44.245Z,81.50
2018-03-22T19:11:10.948Z,82.08
2018-03-22T19:13:37.904Z,82.44
2018-03-22T19:16:04.627Z,82.46
2018-03-22T19:18:31.502Z,82.62
2018-03-22T19:20:59.152Z,82.73
2018-03-22T19:23:25.813Z,82.69
2018-03-22T19:25:52.555Z,82.39
2018-03-22T19:28:19.483Z,82.54
2018-03-22T19:30:46.538Z,82.27
2018-03-22T19:33:13.243Z,81.71
2018-03-22T19:35:40.097Z,83.03
2018-03-22T19:38:06.775Z,82.48
2018-03-22T19:40:34.366Z,82.86
2018-03-22T19:43:01.230Z,82.92
2018-03-22T19:45:29.105Z,82.45
2018-03-22T19:47:55.823Z,82.75
2018-03-22T19:50:22.572Z,82.61
2018-03-22T19:52:49.363Z,82.66
2018-03-22T19:55:16.791Z,83.15
2018-03-22T19:57:43.496Z,83.06
2018-03-22T20:00:10.121Z,82.84
2018-03-22T20:02:37.008Z,82.58
2018-03-22T20:05:03.890Z,82.43
2018-03-22T20:07:30.705Z,82.32
2018-03-22T20:09:57.358Z,82.18
2018-03-22T20:12:24.191Z,81.82
2018-03-22T20:14:51.119Z,81.30
2018-03-22T20:17:17.920Z,81.92
2018-03-22T20:19:44.703Z,81.42
2018-03-22T20:22:11.420Z,81.38
2018-03-22T20:24:38.186Z,81.52
2018-03-22T20:27:05.084Z,81.82
2018-03-22T20:29:31.706Z,82.13
2018-03-22T20:31:58.433Z,82.00
2018-03-22T20:34:25.181Z,81.80
2018-03-22T20:36:51.830Z,81.61
2018-03-22T20:39:18.577Z,81.30
2018-03-22T20:41:45.283Z,82.37
2018-03-22T20:44:11.926Z,81.04
2018-03-22T20:46:38.408Z,82.16
2018-03-22T20:49:05.012Z,87.42
2018-03-22T20:51:31.608Z,89.69
2018-03-22T20:53:58.611Z,90.81
2018-03-22T20:56:25.063Z,83.98
2018-03-22T20:58:51.550Z,81.47
2018-03-22T21:01:18.058Z,81.01
2018-03-22T21:03:44.733Z,80.04
2018-03-22T21:06:11.555Z,80.52
2018-03-22T21:08:38.828Z,82.22
2018-03-22T21:11:05.458Z,82.89
2018-03-22T21:13:32.808Z,81.06
2018-03-22T21:15:59.174Z,81.16
2018-03-22T21:18:25.629Z,81.44
2018-03-22T21:20:52.023Z,81.75
2018-03-22T21:23:18.469Z,81.87
2018-03-22T21:25:44.948Z,81.29
2018-03-22T21:28:11.393Z,81.83
2018-03-22T21:30:37.780Z,81.46
2018-03-22T21:33:04.217Z,84.17
2018-03-22T21:35:30.616Z,85.25
2018-03-22T21:37:57.066Z,83.64
2018-03-22T21:40:23.547Z,83.56
2018-03-22T21:42:49.925Z,84.13
2018-03-22T21:45:16.364Z,83.39
2018-03-22T21:47:42.897Z,83.46
2018-03-22T21:50:09.279Z,87.58
2018-03-22T21:52:42.906Z,88.52
2018-03-22T21:55:09.489Z,87.61
2018-03-22T21:57:36.069Z,87.17
2018-03-22T22:00:02.571Z,88.69
2018-03-22T22:02:28.988Z,89.15
2018-03-22T22:04:55.485Z,89.56
2018-03-22T22:07:22.091Z,87.89
2018-03-22T22:09:48.420Z,89.26
2018-03-22T22:12:14.790Z,89.46
2018-03-22T22:14:41.224Z,89.46
2018-03-22T22:17:08.680Z,89.37
2018-03-22T22:19:35.176Z,87.66
2018-03-22T22:22:01.572Z,88.38
2018-03-22T22:24:28.188Z,88.07
2018-03-22T22:26:54.526Z,88.60
2018-03-22T22:29:21.246Z,89.41
2018-03-22T22:31:47.628Z,90.67
2018-03-22T22:34:14.161Z,91.29
2018-03-22T22:36:40.727Z,93.53
2018-03-22T22:39:07.277Z,94.51
2018-03-22T22:41:33.662Z,95.01
2018-03-22T22:44:00.194Z,95.25
2018-03-22T22:46:26.586Z,95.38
2018-03-22T22:48:52.935Z,95.50
2018-03-22T22:51:19.402Z,95.77
2018-03-22T22:53:46.778Z,96.04
2018-03-22T22:56:13.108Z,96.64
2018-03-22T22:58:39.473Z,96.89
2018-03-22T23:01:05.905Z,97.20
2018-03-22T23:03:32.293Z,97.20
2018-03-22T23:05:58.668Z,97.04
2018-03-22T23:08:25.394Z,96.82
2018-03-22T23:10:51.786Z,96.69
2018-03-22T23:13:18.241Z,96.54
2018-03-22T23:15:44.672Z,96.54
2018-03-22T23:18:11.072Z,96.66
2018-03-22T23:20:37.419Z,96.45
2018-03-22T23:23:03.730Z,96.47
2018-03-22T23:25:30.110Z,96.46
2018-03-22T23:34:42.308Z,95.91
2018-03-22T23:37:08.638Z,95.60
2018-03-22T23:39:34.979Z,95.90
2018-03-22T23:42:01.398Z,95.88
2018-03-22T23:44:27.878Z,96.01
2018-03-22T23:46:54.254Z,95.64
2018-03-22T23:49:20.681Z,95.61
2018-03-22T23:51:47.193Z,95.39
2018-03-22T23:54:13.608Z,95.52
2018-03-22T23:56:40.643Z,95.39
2018-03-22T23:59:07.003Z,95.22
